Time;durP1;ratioP1;P1;durP2;ratioP2;P2;SDS_P1;SDS_P2;PMS_P1;PMS_P2;Temp;Humidity;BMP_temperature;BMP_pressure;BME280_temperature;BME280_humidity;BME280_pressure;Samples;Min_cycle;Max_cycle;Signal;HPM_P1;HPM_P2
2022/05/16 00:02:14;;;;;;;3.55;1.40;;;;;;;13.46;58.28;99695.55;1673317;83;21578;-68
2022/05/16 00:04:43;;;;;;;;;;;;;;;13.51;58.33;99701.92;1686159;83;21448;-68
2022/05/16 00:07:11;;;;;;;2.08;1.37;;;;;;;13.56;58.44;99705.14;1672413;83;20149;-67
2022/05/16 00:09:39;;;;;;;2.75;1.30;;;;;;;13.51;58.12;99708.05;1675136;83;22148;-68
2022/05/16 00:12:07;;;;;;;2.83;1.37;;;;;;;13.42;58.41;99705.89;1722557;81;21116;-68
2022/05/16 00:14:34;;;;;;;3.40;1.32;;;;;;;13.37;58.54;99707.47;1741313;81;21502;-67
2022/05/16 00:17:02;;;;;;;2.33;1.27;;;;;;;13.31;58.62;99706.94;1715412;81;21596;-67
2022/05/16 00:19:29;;;;;;;2.12;1.17;;;;;;;13.27;59.00;99700.92;1719897;80;21395;-67
2022/05/16 00:21:57;;;;;;;2.83;1.27;;;;;;;13.17;59.40;99701.89;1687017;82;21869;-67
2022/05/16 00:24:26;;;;;;;;;;;;;;;13.25;59.46;99706.28;1693131;84;21030;-67
2022/05/16 00:26:53;;;;;;;2.83;1.25;;;;;;;13.23;59.52;99704.19;1672635;83;20436;-69
2022/05/16 00:29:20;;;;;;;3.80;1.32;;;;;;;13.19;59.29;99707.94;1688055;82;21553;-68
2022/05/16 00:31:47;;;;;;;3.80;1.20;;;;;;;13.14;59.29;99705.16;1693631;82;21043;-68
2022/05/16 00:34:14;;;;;;;3.90;1.10;;;;;;;13.01;59.43;99711.53;1688318;82;21677;-68
2022/05/16 00:36:46;;;;;;;1.82;1.20;;;;;;;13.00;59.54;99712.48;1684760;83;21435;-70
2022/05/16 00:39:11;;;;;;;1.75;1.10;;;;;;;12.93;59.69;99715.04;1685615;83;21538;-68
2022/05/16 00:41:42;;;;;;;3.55;1.07;;;;;;;12.97;59.78;99713.95;1690996;82;21022;-69
2022/05/16 00:44:08;;;;;;;6.42;1.40;;;;;;;13.09;59.76;99712.00;1692926;82;21723;-69
2022/05/16 00:46:37;;;;;;;7.72;1.37;;;;;;;13.17;59.68;99710.28;1703225;83;22730;-68
2022/05/16 00:49:13;;;;;;;1.75;1.20;;;;;;;13.17;59.42;99711.60;1680364;83;21522;-68
2022/05/16 00:52:19;;;;;;;3.42;1.32;;;;;;;13.14;59.50;99707.31;1687992;83;21062;-70
2022/05/16 00:55:06;;;;;;;4.37;1.10;;;;;;;13.04;59.38;99710.06;1700709;82;21508;-69
2022/05/16 00:57:41;;;;;;;1.75;1.10;;;;;;;12.98;59.51;99708.59;1683584;83;21569;-69
2022/05/16 01:00:17;;;;;;;3.27;1.27;;;;;;;12.91;59.50;99707.67;1686109;82;21783;-68
2022/05/16 01:05:46;;;;;;;3.92;1.20;;;;;;;12.84;60.30;99707.12;1674386;83;21464;-68
2022/05/16 01:08:19;;;;;;;3.80;1.20;;;;;;;12.79;60.25;99711.33;1684075;83;21593;-66
2022/05/16 01:10:46;;;;;;;3.50;1.20;;;;;;;12.80;60.15;99709.05;1691891;83;21018;-67
2022/05/16 01:13:13;;;;;;;2.72;1.30;;;;;;;12.74;60.25;99714.66;1697173;82;21606;-67
2022/05/16 01:15:46;;;;;;;2.27;1.15;;;;;;;12.70;60.48;99706.98;1692851;83;25453;-67
2022/05/16 01:18:17;;;;;;;3.05;1.37;;;;;;;12.69;60.29;99706.58;1681162;82;21557;-66
2022/05/16 01:21:11;;;;;;;2.77;1.35;;;;;;;12.69;60.38;99706.11;1727609;80;21535;-67
2022/05/16 01:23:41;;;;;;;4.08;1.30;;;;;;;12.77;60.36;99707.91;1724331;81;21407;-67
2022/05/16 01:26:18;;;;;;;6.97;1.80;;;;;;;12.83;60.05;99703.64;1735765;80;21773;-67
2022/05/16 01:28:46;;;;;;;5.60;1.50;;;;;;;12.81;60.06;99708.61;1700095;82;21589;-67
2022/05/16 01:31:13;;;;;;;3.75;1.10;;;;;;;12.79;60.00;99710.45;1693888;83;21609;-67
2022/05/16 01:33:39;;;;;;;3.13;1.57;;;;;;;12.76;59.91;99704.88;1690482;82;21455;-67
2022/05/16 01:36:08;;;;;;;6.05;1.52;;;;;;;12.75;59.81;99705.82;1685570;83;21593;-67
2022/05/16 01:38:34;;;;;;;2.98;2.22;;;;;;;12.70;60.28;99706.52;1720549;80;21786;-67
2022/05/16 01:41:05;;;;;;;1.15;1.02;;;;;;;12.77;60.21;99709.23;1684495;82;21045;-67
2022/05/16 01:43:42;;;;;;;1.70;1.07;;;;;;;12.88;59.82;99706.50;1683197;82;21546;-66
2022/05/16 01:46:10;;;;;;;4.05;1.52;;;;;;;12.89;59.57;99707.74;1719163;80;21439;-67
2022/05/16 01:48:37;;;;;;;6.58;1.72;;;;;;;12.51;59.90;99705.70;1721203;81;21459;-67
2022/05/16 01:51:08;;;;;;;1.35;0.90;;;;;;;12.69;60.02;99710.54;1697827;82;21927;-67
2022/05/16 01:53:36;;;;;;;4.37;1.27;;;;;;;12.65;59.83;99707.20;1683210;84;21486;-67
2022/05/16 01:56:04;;;;;;;3.55;1.30;;;;;;;12.57;59.93;99712.02;1718245;80;21007;-67
2022/05/16 01:58:32;;;;;;;2.40;1.20;;;;;;;12.53;60.23;99706.04;1721587;81;21593;-67
2022/05/16 02:00:59;;;;;;;1.72;1.20;;;;;;;12.62;60.24;99703.39;1679739;82;21475;-67
2022/05/16 02:03:26;;;;;;;4.50;1.25;;;;;;;12.68;60.11;99702.22;1717023;81;22111;-68
2022/05/16 02:05:53;;;;;;;4.85;1.45;;;;;;;12.62;60.00;99706.02;1733910;80;21605;-70
2022/05/16 02:08:21;;;;;;;2.75;1.20;;;;;;;12.60;59.96;99705.25;1722045;80;21530;-69
2022/05/16 02:10:48;;;;;;;1.55;1.10;;;;;;;12.46;59.85;99689.66;1686999;82;21523;-68
2022/05/16 02:13:15;;;;;;;2.00;1.65;;;;;;;12.45;59.94;99702.91;1693065;82;21594;-67
2022/05/16 02:15:44;;;;;;;2.98;1.40;;;;;;;12.38;59.99;99704.17;1727694;80;21937;-68
2022/05/16 02:18:10;;;;;;;3.08;1.40;;;;;;;12.39;60.33;99702.75;1713485;81;20951;-68
2022/05/16 02:20:38;;;;;;;2.12;1.10;;;;;;;12.51;60.15;99703.06;1693699;84;21447;-67
2022/05/16 02:25:53;;;;;;;2.67;1.47;;;;;;;12.48;59.89;99701.45;1683755;82;21457;-66
2022/05/16 02:28:20;;;;;;;3.30;1.10;;;;;;;12.55;59.85;99702.02;1685685;82;21956;-69
2022/05/16 02:30:47;;;;;;;3.42;1.30;;;;;;;12.46;59.89;99702.00;1691612;82;21490;-69
2022/05/16 02:33:16;;;;;;;1.92;1.12;;;;;;;12.41;59.92;99701.36;1723723;80;21535;-67
2022/05/16 02:35:43;;;;;;;3.12;1.30;;;;;;;12.38;59.76;99703.69;1716689;81;21494;-68
2022/05/16 02:38:13;;;;;;;2.90;1.40;;;;;;;12.33;60.04;99712.28;1714653;81;21594;-69
2022/05/16 02:40:39;;;;;;;6.28;1.50;;;;;;;12.33;60.27;99712.28;1737951;80;21865;-68
2022/05/16 02:43:06;;;;;;;4.73;1.60;;;;;;;12.32;60.31;99713.67;1738317;81;21530;-68
2022/05/16 02:45:35;;;;;;;2.35;1.30;;;;;;;12.30;60.29;99719.05;1735508;80;21510;-68
2022/05/16 02:48:03;;;;;;;2.25;1.22;;;;;;;12.35;60.09;99713.06;1708427;82;21594;-68
2022/05/16 02:50:30;;;;;;;2.65;1.47;;;;;;;12.40;59.86;99717.66;1696251;82;21561;-69
2022/05/16 02:52:57;;;;;;;4.92;2.47;;;;;;;12.40;59.79;99724.25;1704632;82;21538;-65
2022/05/16 02:55:24;;;;;;;7.08;1.50;;;;;;;12.40;59.75;99722.92;1705230;83;21522;-68
2022/05/16 02:57:51;;;;;;;3.13;1.70;;;;;;;12.40;59.84;99718.97;1695256;82;21681;-67
2022/05/16 03:00:18;;;;;;;2.10;1.30;;;;;;;12.49;60.13;99718.99;1675109;83;21577;-68
2022/05/16 03:02:45;;;;;;;3.90;2.17;;;;;;;12.57;59.86;99716.82;1680334;82;21581;-68
2022/05/16 03:05:12;;;;;;;3.10;1.50;;;;;;;12.62;59.77;99716.58;1694109;82;21776;-67
2022/05/16 03:07:39;;;;;;;2.92;1.45;;;;;;;12.61;59.55;99713.56;1680132;82;21422;-67
2022/05/16 03:10:07;;;;;;;5.73;1.77;;;;;;;12.55;59.56;99720.47;1673735;82;21562;-67
2022/05/16 03:12:34;;;;;;;3.70;1.42;;;;;;;12.56;59.42;99723.01;1680677;83;21431;-67
2022/05/16 03:15:01;;;;;;;3.22;1.90;;;;;;;12.59;59.05;99722.02;1692916;82;21573;-66
2022/05/16 03:17:28;;;;;;;1.92;1.30;;;;;;;12.67;59.06;99721.16;1683337;82;21709;-65
2022/05/16 03:19:56;;;;;;;2.30;1.50;;;;;;;12.83;58.77;99730.02;1686080;82;21577;-65
2022/05/16 03:22:22;;;;;;;10.13;1.50;;;;;;;12.98;58.12;99724.91;1684908;82;21060;-69
2022/05/16 03:24:49;;;;;;;3.47;1.67;;;;;;;13.01;58.00;99728.20;1687806;83;21452;-66
2022/05/16 03:27:16;;;;;;;3.10;1.42;;;;;;;13.02;58.07;99727.77;1694666;82;21531;-65
2022/05/16 03:29:43;;;;;;;4.55;1.42;;;;;;;13.02;57.95;99730.41;1693506;82;21931;-66
2022/05/16 03:32:10;;;;;;;1.42;1.17;;;;;;;13.05;58.04;99728.91;1688631;82;21432;-64
2022/05/16 03:34:37;;;;;;;3.45;1.40;;;;;;;13.01;58.44;99725.56;1701482;82;21464;-65
2022/05/16 03:37:04;;;;;;;3.27;1.02;;;;;;;13.11;58.62;99727.30;1696386;82;21550;-66
2022/05/16 03:42:16;;;;;;;3.95;1.65;;;;;;;13.32;57.91;99727.14;1669952;83;21841;-65
2022/05/16 03:44:43;;;;;;;2.83;1.50;;;;;;;13.32;57.71;99727.14;1694689;81;21484;-66
2022/05/16 03:47:10;;;;;;;5.37;1.40;;;;;;;13.33;57.85;99724.39;1680379;83;21133;-64
2022/05/16 03:49:38;;;;;;;2.95;1.52;;;;;;;13.37;57.61;99726.41;1681542;83;21499;-66
2022/05/16 03:52:54;;;;;;;1.40;1.30;;;;;;;12.62;60.79;99722.73;1784265;78;22867;-66
2022/05/16 03:55:21;;;;;;;5.67;1.32;;;;;;;13.44;57.60;99728.64;1767215;80;21529;-59
2022/05/16 03:57:48;;;;;;;4.33;1.40;;;;;;;13.69;56.92;99723.35;1757464;80;21986;-59
2022/05/16 04:00:16;;;;;;;6.58;1.45;;;;;;;13.91;56.25;99732.28;1755906;80;21518;-59
2022/05/16 04:02:43;;;;;;;2.52;1.55;;;;;;;14.02;55.71;99727.26;1743259;80;21470;-57
2022/05/16 04:05:11;;;;;;;2.67;1.37;;;;;;;14.11;55.94;99723.26;1767148;80;21494;-60
2022/05/16 04:07:38;;;;;;;5.22;1.27;;;;;;;14.19;55.35;99726.31;1755882;80;21494;-58
2022/05/16 04:10:06;;;;;;;7.00;1.52;;;;;;;14.26;54.98;99732.13;1749770;80;21534;-60
2022/05/16 04:12:32;;;;;;;;;;;;;;;14.35;55.06;99726.31;1751827;80;21463;-59
2022/05/16 04:14:59;;;;;;;4.47;1.30;;;;;;;14.36;54.47;99725.35;1756520;80;20467;-62
2022/05/16 04:17:26;;;;;;;3.08;1.30;;;;;;;14.43;53.92;99725.88;1755660;80;21072;-60
2022/05/16 04:19:53;;;;;;;5.37;1.52;;;;;;;14.47;53.79;99722.10;1759919;80;21442;-59
2022/05/16 04:22:20;;;;;;;1.42;1.02;;;;;;;14.51;53.79;99721.45;1755734;80;21926;-59
2022/05/16 04:24:47;;;;;;;2.95;1.25;;;;;;;14.65;53.75;99720.20;1757968;80;21507;-61
2022/05/16 04:27:14;;;;;;;2.72;1.20;;;;;;;14.85;53.58;99723.48;1759288;80;21438;-61
2022/05/16 04:29:40;;;;;;;1.90;1.12;;;;;;;14.98;52.55;99724.45;1754146;80;21435;-60
2022/05/16 04:32:07;;;;;;;2.37;1.20;;;;;;;15.07;52.38;99726.55;1748819;80;21029;-59
2022/05/16 04:34:34;;;;;;;2.17;1.30;;;;;;;15.16;52.26;99722.03;1753704;80;21911;-60
2022/05/16 04:37:02;;;;;;;5.72;1.10;;;;;;;15.25;52.62;99725.05;1746712;80;21555;-60
2022/05/16 04:39:28;;;;;;;3.62;1.20;;;;;;;15.42;52.63;99722.22;1742767;80;21478;-59
2022/05/16 04:44:40;;;;;;;3.92;1.60;;;;;;;15.55;51.64;99723.16;1761151;80;20967;-60
2022/05/16 04:47:08;;;;;;;4.65;1.37;;;;;;;15.64;51.38;99725.72;1759917;80;21809;-59
2022/05/16 04:49:36;;;;;;;1.98;1.00;;;;;;;15.60;51.01;99725.54;1747348;80;21506;-61
2022/05/16 04:52:04;;;;;;;5.03;1.60;;;;;;;15.67;50.92;99729.52;1745911;80;21577;-60
2022/05/16 04:54:30;;;;;;;2.17;1.70;;;;;;;15.80;51.50;99727.44;1743563;81;21499;-59
2022/05/16 04:56:57;;;;;;;4.05;1.70;;;;;;;15.82;50.86;99733.48;1741289;81;21066;-60
2022/05/16 04:59:24;;;;;;;7.03;1.60;;;;;;;15.89;51.22;99725.05;1747779;81;21840;-60
2022/05/16 05:01:51;;;;;;;7.17;1.50;;;;;;;15.90;50.77;99733.39;1744644;81;21816;-60
2022/05/16 05:04:18;;;;;;;4.25;1.87;;;;;;;15.94;49.86;99725.62;1738799;81;21545;-59
2022/05/16 05:06:45;;;;;;;3.80;1.50;;;;;;;15.87;50.53;99732.73;1739624;81;21426;-60
2022/05/16 05:09:11;;;;;;;1.67;1.55;;;;;;;16.05;50.10;99729.36;1752326;81;21479;-59
2022/05/16 05:14:32;;;;;;;1.75;1.57;;;;;;;16.25;49.85;99728.94;1745276;81;21518;-67
2022/05/16 05:17:06;;;;;;;4.58;1.50;;;;;;;16.33;49.61;99726.66;1741585;81;21486;-67
2022/05/16 05:19:34;;;;;;;2.87;1.37;;;;;;;16.45;49.46;99721.01;1750247;81;21523;-66
2022/05/16 05:22:01;;;;;;;;;;;;;;;16.53;48.70;99721.34;1745937;81;21521;-59
2022/05/16 05:24:27;;;;;;;2.67;1.57;;;;;;;16.63;49.03;99715.42;1745093;81;21814;-67
2022/05/16 05:26:54;;;;;;;4.97;1.30;;;;;;;16.71;48.91;99721.09;1741006;81;21006;-67
2022/05/16 05:29:22;;;;;;;2.27;1.47;;;;;;;16.76;47.76;99724.27;1744404;81;21502;-64
2022/05/16 05:31:49;;;;;;;2.72;1.40;;;;;;;16.84;47.39;99725.98;1744888;81;21512;-64
2022/05/16 05:34:16;;;;;;;5.90;1.60;;;;;;;16.96;46.95;99715.48;1745852;81;21609;-68
2022/05/16 05:36:43;;;;;;;4.58;1.00;;;;;;;17.04;47.23;99722.44;1743228;81;22208;-68
2022/05/16 05:39:13;;;;;;;2.27;0.90;;;;;;;17.15;46.77;99716.39;1741019;81;21021;-70
2022/05/16 05:41:40;;;;;;;1.65;1.17;;;;;;;17.24;46.20;99725.06;1744518;81;21551;-68
2022/05/16 05:44:07;;;;;;;2.10;0.82;;;;;;;17.38;45.04;99724.93;1750135;81;21740;-69
2022/05/16 05:46:37;;;;;;;5.12;1.15;;;;;;;17.54;45.40;99726.05;1740457;80;21435;-70
2022/05/16 05:49:05;;;;;;;2.08;1.00;;;;;;;17.66;44.59;99720.34;1740756;81;21553;-69
2022/05/16 05:51:32;;;;;;;2.80;0.90;;;;;;;17.75;44.11;99718.84;1749518;81;21563;-68
2022/05/16 05:53:59;;;;;;;7.67;1.72;;;;;;;17.94;44.38;99721.91;1740006;81;21546;-60
2022/05/16 05:56:27;;;;;;;1.72;1.02;;;;;;;18.06;42.93;99718.83;1740271;80;21891;-60
2022/05/16 05:58:55;;;;;;;5.58;0.93;;;;;;;18.09;42.17;99722.61;1744372;80;21464;-60
2022/05/16 06:01:22;;;;;;;2.60;1.20;;;;;;;18.08;41.55;99716.91;1740727;80;21882;-60
2022/05/16 06:03:49;;;;;;;0.75;0.75;;;;;;;18.34;41.66;99711.00;1747117;80;26971;-61
2022/05/16 06:06:16;;;;;;;4.37;1.10;;;;;;;18.34;39.92;99710.16;1733510;80;21011;-60
2022/05/16 06:08:43;;;;;;;3.00;0.90;;;;;;;18.36;38.81;99706.41;1733992;80;21539;-60
2022/05/16 06:11:09;;;;;;;2.35;0.90;;;;;;;18.50;38.78;99709.39;1747492;80;21651;-60
2022/05/16 06:13:38;;;;;;;1.07;0.78;;;;;;;18.59;38.38;99707.84;1747174;81;22211;-60
2022/05/16 06:16:06;;;;;;;0.68;0.68;;;;;;;18.68;38.34;99712.02;1740271;81;21494;-59
2022/05/16 06:18:33;;;;;;;;;;;;;;;18.74;38.15;99708.49;1742969;80;20975;-60
2022/05/16 06:20:59;;;;;;;1.80;0.80;;;;;;;18.82;38.77;99708.81;1733040;80;20435;-60
2022/05/16 06:23:26;;;;;;;2.20;1.02;;;;;;;18.84;37.54;99706.88;1741129;80;21014;-60
2022/05/16 06:25:53;;;;;;;3.87;1.00;;;;;;;18.82;38.08;99709.66;1738232;80;21403;-60
2022/05/16 06:28:24;;;;;;;3.87;0.93;;;;;;;18.81;37.39;99704.44;1744804;80;21396;-61
2022/05/16 06:30:52;;;;;;;2.55;0.95;;;;;;;18.91;37.01;99707.24;1740864;80;21476;-62
2022/05/16 06:33:21;;;;;;;1.85;1.12;;;;;;;18.98;38.12;99703.98;1751204;81;28493;-62
2022/05/16 06:35:48;;;;;;;4.20;1.45;;;;;;;19.17;38.75;99705.23;1739021;80;21439;-61
2022/05/16 06:38:21;;;;;;;4.05;1.20;;;;;;;19.29;38.89;99697.63;1739421;80;21811;-62
2022/05/16 06:40:49;;;;;;;2.90;0.78;;;;;;;19.30;38.33;99699.80;1743859;80;21411;-62
2022/05/16 06:43:17;;;;;;;1.45;0.80;;;;;;;19.20;37.69;99703.68;1736761;80;21530;-61
2022/05/16 06:45:43;;;;;;;3.15;0.70;;;;;;;19.25;37.57;99695.69;1736705;80;21101;-61
2022/05/16 06:48:10;;;;;;;4.50;0.75;;;;;;;19.47;38.74;99691.81;1745205;80;21499;-62
2022/05/16 06:50:37;;;;;;;1.98;0.95;;;;;;;19.60;37.31;99693.87;1740013;80;21805;-62
2022/05/16 06:53:05;;;;;;;2.27;0.80;;;;;;;19.56;37.18;99695.09;1742580;81;21503;-62
2022/05/16 06:55:33;;;;;;;1.45;0.72;;;;;;;19.61;37.54;99690.25;1741600;80;20955;-61
2022/05/16 06:58:00;;;;;;;4.85;0.70;;;;;;;19.60;37.64;99687.20;1742593;81;21482;-65
2022/05/16 07:00:27;;;;;;;3.60;0.68;;;;;;;19.64;37.38;99684.65;1746064;80;21030;-61
2022/05/16 07:02:53;;;;;;;3.17;0.85;;;;;;;19.64;37.84;99688.64;1745089;81;21747;-61
2022/05/16 07:05:20;;;;;;;1.25;0.78;;;;;;;19.70;37.71;99677.48;1749004;81;21495;-61
2022/05/16 07:07:47;;;;;;;2.98;1.32;;;;;;;19.88;37.82;99677.86;1746744;79;21069;-63
2022/05/16 07:10:14;;;;;;;4.45;0.90;;;;;;;19.88;37.78;99677.86;1740347;81;20959;-61
2022/05/16 07:12:41;;;;;;;2.80;0.75;;;;;;;19.97;38.46;99672.27;1748456;81;21411;-62
2022/05/16 07:15:09;;;;;;;2.92;0.93;;;;;;;20.22;38.09;99672.43;1746704;81;22101;-61
2022/05/16 07:17:36;;;;;;;1.90;0.75;;;;;;;19.99;37.59;99682.33;1745800;80;21518;-62
2022/05/16 07:20:04;;;;;;;2.72;0.72;;;;;;;20.06;37.77;99673.32;1748539;81;21589;-61
2022/05/16 07:22:31;;;;;;;5.70;1.02;;;;;;;19.91;37.87;99676.29;1743674;81;20967;-61
2022/05/16 07:24:59;;;;;;;4.40;0.85;;;;;;;19.84;38.17;99680.42;1753975;81;21010;-60
2022/05/16 07:30:12;;;;;;;1.85;0.90;;;;;;;19.93;38.94;99677.01;1739420;81;21423;-60
2022/05/16 07:32:43;;;;;;;7.15;1.12;;;;;;;20.08;39.77;99689.59;1741751;81;21586;-61
2022/05/16 07:35:17;;;;;;;4.47;1.42;;;;;;;20.26;37.13;99677.88;1741544;81;21507;-60
2022/05/16 07:37:47;;;;;;;3.92;1.17;;;;;;;20.42;36.58;99679.64;1746894;81;21570;-60
2022/05/16 07:40:16;;;;;;;3.90;1.00;;;;;;;20.41;36.20;99685.94;1752567;81;21903;-61
2022/05/16 07:42:43;;;;;;;2.02;1.00;;;;;;;20.26;36.39;99681.03;1746974;81;21423;-61
2022/05/16 07:45:11;;;;;;;3.70;0.90;;;;;;;20.59;36.46;99675.55;1742769;80;21496;-60
2022/05/16 07:47:38;;;;;;;2.22;1.00;;;;;;;20.54;36.04;99676.91;1740644;81;21483;-61
2022/05/16 07:50:07;;;;;;;2.67;0.90;;;;;;;20.40;35.78;99672.74;1745008;81;21613;-61
2022/05/16 07:52:34;;;;;;;4.42;0.90;;;;;;;20.37;35.62;99676.99;1753713;80;22924;-61
2022/05/16 07:55:02;;;;;;;3.00;0.80;;;;;;;20.43;36.15;99663.95;1769103;79;21034;-64
2022/05/16 07:57:30;;;;;;;3.47;0.93;;;;;;;20.46;34.18;99673.55;1759757;80;21553;-61
2022/05/16 07:59:57;;;;;;;0.93;0.65;;;;;;;20.60;34.21;99665.73;1764159;79;21038;-61
2022/05/16 08:02:24;;;;;;;4.05;0.82;;;;;;;20.58;35.05;99663.66;1765388;80;21041;-60
2022/05/16 08:04:51;;;;;;;5.70;0.88;;;;;;;20.87;34.90;99664.37;1754145;80;27412;-61
2022/05/16 08:07:18;;;;;;;4.10;1.10;;;;;;;20.78;34.79;99666.86;1755143;80;21542;-60
2022/05/16 08:12:35;;;;;;;2.95;0.88;;;;;;;20.65;34.85;99660.86;1755007;80;21478;-59
2022/05/16 08:15:05;;;;;;;3.47;0.78;;;;;;;20.75;33.96;99667.61;1750902;79;21593;-60
2022/05/16 08:17:32;;;;;;;2.30;0.70;;;;;;;20.83;32.75;99662.45;1762555;79;21486;-61
2022/05/16 08:19:59;;;;;;;3.70;0.90;;;;;;;20.78;33.48;99662.85;1756791;79;21505;-62
2022/05/16 08:22:31;;;;;;;2.08;0.82;;;;;;;20.86;33.68;99663.53;1758674;80;21609;-62
2022/05/16 08:24:58;;;;;;;2.35;0.80;;;;;;;21.12;33.51;99667.97;1764214;80;21544;-61
2022/05/16 08:27:26;;;;;;;4.80;0.98;;;;;;;21.12;32.61;99661.79;1765259;79;21537;-60
2022/05/16 08:29:52;;;;;;;5.70;0.50;;;;;;;20.95;31.20;99677.94;1761800;79;21859;-62
2022/05/16 08:32:26;;;;;;;3.92;0.80;;;;;;;21.04;32.15;99666.93;1753518;79;21440;-61
2022/05/16 08:34:59;;;;;;;3.75;0.95;;;;;;;21.21;31.48;99659.66;1753091;79;21604;-61
2022/05/16 08:40:12;;;;;;;3.30;0.95;;;;;;;21.47;30.61;99663.23;1765529;79;21565;-61
2022/05/16 08:42:50;;;;;;;1.15;0.50;;;;;;;21.53;30.34;99665.35;1758571;80;21857;-61
2022/05/16 08:45:31;;;;;;;4.08;0.70;;;;;;;21.56;31.37;99667.77;1758292;79;21611;-60
2022/05/16 08:48:15;;;;;;;2.75;1.00;;;;;;;21.48;30.72;99671.13;1764711;80;21021;-61
2022/05/16 08:51:03;;;;;;;3.77;0.70;;;;;;;21.48;30.67;99668.45;1757703;79;21467;-60
2022/05/16 08:53:42;;;;;;;5.10;1.10;;;;;;;21.56;31.02;99676.63;1745728;79;21531;-60
2022/05/16 08:56:10;;;;;;;2.08;0.80;;;;;;;21.52;30.55;99673.87;1735812;80;21992;-60
2022/05/16 08:59:01;;;;;;;7.03;0.98;;;;;;;21.39;30.84;99674.06;1743341;80;20987;-60
2022/05/16 09:01:38;;;;;;;1.40;0.80;;;;;;;21.46;31.03;99671.75;1736754;79;21594;-61
2022/05/16 09:04:14;;;;;;;2.10;1.00;;;;;;;21.49;30.96;99667.48;1743585;80;21003;-60
2022/05/16 09:07:14;;;;;;;1.65;0.90;;;;;;;21.44;30.78;99676.39;1735903;81;21566;-61
2022/05/16 09:09:57;;;;;;;0.65;0.53;;;;;;;21.35;30.44;99677.16;1741028;80;21950;-62
2022/05/16 09:12:48;;;;;;;3.47;0.88;;;;;;;21.40;30.71;99673.60;1717510;80;21562;-60
2022/05/16 09:15:51;;;;;;;1.42;0.70;;;;;;;21.37;30.90;99669.34;1736813;80;21574;-60
2022/05/16 09:18:38;;;;;;;6.53;0.98;;;;;;;21.35;31.06;99669.98;1738160;79;21613;-59
2022/05/16 09:21:29;;;;;;;4.22;0.90;;;;;;;21.20;30.88;99673.99;1748659;80;21522;-59
2022/05/16 09:24:25;;;;;;;2.10;0.80;;;;;;;21.14;31.22;99666.02;1743653;80;21784;-61
2022/05/16 09:28:34;;;;;;;1.50;0.78;;;;;;;21.30;32.12;99662.84;1733439;80;21014;-60
2022/05/16 09:29:48;;;;;;;3.12;0.80;;;;;;;21.25;30.34;99669.09;1735449;80;21496;-60
2022/05/16 09:32:31;;;;;;;1.77;0.78;;;;;;;21.08;30.07;99667.89;1746301;80;21698;-62
2022/05/16 09:34:59;;;;;;;3.42;0.90;;;;;;;21.14;31.57;99673.19;1744115;80;21613;-61
2022/05/16 09:37:25;;;;;;;2.33;1.02;;;;;;;21.35;31.83;99667.30;1750016;80;21955;-60
2022/05/16 09:39:54;;;;;;;2.00;0.65;;;;;;;21.73;31.01;99665.77;1749401;80;21593;-60
2022/05/16 09:42:33;;;;;;;1.00;0.70;;;;;;;21.96;29.74;99666.41;1747416;80;21479;-60
2022/05/16 09:45:06;;;;;;;2.33;0.70;;;;;;;22.04;29.53;99673.75;1748546;80;21614;-61
2022/05/16 09:47:37;;;;;;;4.58;1.10;;;;;;;22.00;29.40;99660.29;1749650;80;21579;-61
2022/05/16 09:50:20;;;;;;;5.10;1.20;;;;;;;21.95;29.64;99674.57;1742747;80;21565;-59
2022/05/16 09:52:52;;;;;;;2.10;0.78;;;;;;;21.95;29.56;99666.04;1748495;80;21594;-64
2022/05/16 09:55:45;;;;;;;2.75;0.75;;;;;;;21.88;29.78;99674.77;1732340;80;21586;-61
2022/05/16 09:58:26;;;;;;;4.00;0.70;;;;;;;21.86;29.72;99665.52;1747231;80;21539;-62
2022/05/16 10:00:58;;;;;;;2.05;0.70;;;;;;;21.85;29.45;99666.53;1747454;80;21135;-60
2022/05/16 10:03:35;;;;;;;0.98;0.65;;;;;;;21.70;30.04;99668.73;1747177;79;22563;-64
2022/05/16 10:06:08;;;;;;;3.25;1.05;;;;;;;21.70;30.53;99658.51;1747442;80;21626;-61
2022/05/16 10:08:42;;;;;;;1.55;1.00;;;;;;;21.87;30.23;99651.17;1743670;80;21550;-62
2022/05/16 10:11:23;;;;;;;4.80;0.75;;;;;;;22.11;28.75;99660.16;1747595;80;21527;-60
2022/05/16 10:13:50;;;;;;;2.55;0.60;;;;;;;22.02;27.44;99649.41;1726761;80;21570;-62
2022/05/16 10:16:16;;;;;;;2.12;0.70;;;;;;;21.85;27.63;99650.47;1743175;79;21792;-62
2022/05/16 10:18:51;;;;;;;3.90;0.82;;;;;;;21.89;28.47;99640.34;1720590;80;21456;-61
2022/05/16 10:21:35;;;;;;;6.62;1.20;;;;;;;21.89;28.47;99640.34;1716345;81;21515;-60
2022/05/16 10:24:07;;;;;;;11.60;0.90;;;;;;;22.01;28.23;99641.05;1739279;81;21508;-61
2022/05/16 10:26:39;;;;;;;3.95;0.85;;;;;;;22.01;27.88;99632.52;1699654;81;21612;-61
2022/05/16 10:29:21;;;;;;;3.95;0.70;;;;;;;22.05;28.46;99638.44;1725603;80;21634;-61
2022/05/16 10:34:54;;;;;;;1.25;0.50;;;;;;;22.20;28.19;99641.56;1741462;80;21657;-61
2022/05/16 10:37:20;;;;;;;1.80;0.50;;;;;;;22.21;28.10;99637.41;1749692;80;21515;-60
2022/05/16 10:40:11;;;;;;;2.77;0.70;;;;;;;21.97;27.96;99626.59;1736259;80;21527;-65
2022/05/16 10:42:46;;;;;;;2.72;0.60;;;;;;;21.87;28.73;99630.23;1737775;80;22093;-72
2022/05/16 10:45:17;;;;;;;3.25;1.00;;;;;;;21.84;28.28;99630.53;1749163;80;21573;-58
2022/05/16 10:48:09;;;;;;;1.75;0.80;;;;;;;21.83;28.69;99630.16;1746862;80;21447;-67
2022/05/16 10:50:46;;;;;;;2.62;0.90;;;;;;;21.65;29.25;99630.84;1749804;80;21667;-69
2022/05/16 10:53:23;;;;;;;0.98;0.60;;;;;;;21.71;29.50;99624.93;1751552;79;21602;-70
2022/05/16 10:56:31;;;;;;;2.00;0.60;;;;;;;21.89;29.63;99624.28;1746280;80;21778;-67
2022/05/16 10:59:27;;;;;;;4.28;0.80;;;;;;;22.11;29.16;99620.00;1718677;81;20983;-64
2022/05/16 11:02:13;;;;;;;3.10;0.60;;;;;;;22.11;29.16;99620.47;1738654;80;21444;-65
2022/05/16 11:04:57;;;;;;;1.52;0.62;;;;;;;22.16;28.40;99612.37;1743936;80;21586;-70
2022/05/16 11:07:45;;;;;;;2.20;0.80;;;;;;;22.19;28.65;99617.09;1751948;80;21562;-64
2022/05/16 11:10:46;;;;;;;1.47;0.80;;;;;;;22.37;29.23;99607.90;1752061;80;21744;-65
2022/05/16 11:13:38;;;;;;;4.50;1.00;;;;;;;22.70;28.69;99605.25;1744332;80;21682;-59
2022/05/16 11:16:16;;;;;;;3.17;0.88;;;;;;;22.86;28.20;99612.17;1746906;80;21531;-60
2022/05/16 11:18:51;;;;;;;1.40;0.70;;;;;;;22.60;27.68;99616.46;1743768;80;21444;-59
2022/05/16 11:21:24;;;;;;;2.65;0.82;;;;;;;22.49;28.09;99608.08;1742673;80;21515;-59
2022/05/16 11:24:30;;;;;;;5.05;0.90;;;;;;;22.48;28.09;99609.92;1738831;80;22072;-59
2022/05/16 11:27:09;;;;;;;2.65;1.02;;;;;;;22.50;27.72;99615.98;1740436;80;21534;-58
2022/05/16 11:30:06;;;;;;;6.17;1.52;;;;;;;22.48;27.87;99609.09;1730555;81;21557;-59
2022/05/16 11:33:09;;;;;;;2.40;0.95;;;;;;;22.66;27.95;99617.22;1752129;80;21440;-59
2022/05/16 11:35:47;;;;;;;1.60;0.80;;;;;;;22.69;26.50;99587.47;1745550;80;21031;-59
2022/05/16 11:38:45;;;;;;;4.67;0.90;;;;;;;23.02;26.73;99595.48;1741219;80;21884;-59
2022/05/16 11:41:30;;;;;;;2.83;0.85;;;;;;;23.25;26.68;99598.66;1738504;80;21570;-59
2022/05/16 11:44:28;;;;;;;2.40;0.82;;;;;;;23.18;26.28;99605.60;1733112;80;21534;-58
2022/05/16 11:47:10;;;;;;;3.85;0.90;;;;;;;23.03;26.23;99603.02;1727312;81;21490;-59
2022/05/16 11:49:45;;;;;;;6.17;1.10;;;;;;;23.01;26.68;99601.82;1746136;81;21601;-59
2022/05/16 11:52:32;;;;;;;3.58;1.02;;;;;;;22.87;26.48;99599.13;1729651;81;22116;-61
2022/05/16 11:55:02;;;;;;;;;;;;;;;22.76;27.27;99601.98;1755794;81;21478;-60
2022/05/16 12:03:03;;;;;;;1.65;0.60;;;;;;;22.83;27.17;99594.19;1740725;81;21479;-61
2022/05/16 12:05:34;;;;;;;3.10;1.05;;;;;;;22.85;27.46;99590.86;1739952;81;21973;-60
2022/05/16 12:08:12;;;;;;;1.77;0.55;;;;;;;22.92;27.07;99592.84;1749908;81;21582;-59
2022/05/16 12:11:09;;;;;;;1.57;0.88;;;;;;;22.93;27.47;99592.34;1727196;81;21486;-59
2022/05/16 12:13:57;;;;;;;1.12;0.60;;;;;;;22.93;27.40;99591.00;1748461;81;21518;-60
2022/05/16 12:16:36;;;;;;;8.03;0.80;;;;;;;23.11;27.03;99576.34;1745565;81;21427;-59
2022/05/16 12:19:16;;;;;;;3.45;0.70;;;;;;;23.12;26.91;99578.88;1745257;81;22099;-59
2022/05/16 12:21:54;;;;;;;3.45;0.80;;;;;;;23.32;27.43;99581.48;1740882;81;21155;-60
2022/05/16 12:24:30;;;;;;;1.75;0.80;;;;;;;23.43;26.80;99571.03;1741708;81;21448;-59
2022/05/16 12:27:07;;;;;;;0.85;0.72;;;;;;;23.56;27.10;99572.85;1726343;81;21420;-58
2022/05/16 12:29:52;;;;;;;5.37;0.80;;;;;;;23.65;26.78;99572.45;1751757;80;21364;-59